ヌメア の空港の天気 - METARとTAF

ヌメア国際空港 ( NWWW / NOU ) - ニューカレドニア ヌメア
飛行場実況気象(Metar)
観測時間09/26 20:00 NCT (09/26 09:00 UTC)
風向・風速南東 3m/s
視程10km以上
天気現象
全天の8割程度の雲 雲底高度 1580m
気温20℃
湿度64%
気圧1015hPa
METARNWWW 260900Z AUTO 14006KT 9999 BKN052 20/13 Q1015 NOSIG
過去の天気等 Google飛行場航空写真 Wunderground天気予報

過去48時間のMETAR

飛行場予報(TAF)
発表時間: 9/26 16:00 NCT (9/26 05:00 UTC)
予報対象時間: 26日17時 NCT ~ 27日17時 NCT
風向・風速南 5m/s
視程10km以上
少しの雲 雲底高度 1370m
26日17時 NCT ~ 26日19時 NCT に徐々に
風向・風速不定 1m/s
27日9時 NCT ~ 27日11時 NCT に徐々に
風向・風速南西 5m/s
27日13時 NCT ~ 27日17時 NCT に一時的に
少しの塔状積雲 雲底高度 760m
TAF NWWW 260500Z 2606/2706 18010KT 9999 FEW045
BECMG 2606/2608 VRB02KT
BECMG 2622/2624 22010KT
TEMPO 2702/2706 FEW025TCU